Time;durP1;ratioP1;P1;durP2;ratioP2;P2;SDS_P1;SDS_P2;PMS_P1;PMS_P2;Temp;Humidity;BMP_temperature;BMP_pressure;BME280_temperature;BME280_humidity;BME280_pressure;Samples;Min_cycle;Max_cycle;Signal;HPM_P1;HPM_P2
2022/12/07 00:01:23;;;;;;;47.20;23.07;;;1.40;99.90;;;;;;4994011;28;20233;-76
2022/12/07 00:03:53;;;;;;;47.83;23.60;;;1.40;99.90;;;;;;4995599;28;20203;-73
2022/12/07 00:06:28;;;;;;;44.93;22.47;;;1.50;99.90;;;;;;5011263;28;20270;-74
2022/12/07 00:09:05;;;;;;;47.00;22.80;;;1.50;99.90;;;;;;5012187;28;20299;-76
2022/12/07 00:11:33;;;;;;;46.30;22.80;;;1.50;99.90;;;;;;5011165;28;20215;-76
2022/12/07 00:14:04;;;;;;;51.63;24.17;;;1.50;99.90;;;;;;5010330;28;20527;-74
2022/12/07 00:16:33;;;;;;;47.23;22.87;;;1.60;99.90;;;;;;5011278;28;20188;-75
2022/12/07 00:19:03;;;;;;;54.13;25.17;;;1.60;99.90;;;;;;4994317;28;20201;-75
2022/12/07 00:21:33;;;;;;;45.73;22.53;;;1.60;99.90;;;;;;4994418;28;20700;-74
2022/12/07 00:24:01;;;;;;;45.83;21.77;;;1.60;99.90;;;;;;4994222;28;20219;-75
2022/12/07 00:26:31;;;;;;;45.83;23.13;;;1.60;99.90;;;;;;4995271;28;20325;-72
2022/12/07 00:29:26;;;;;;;47.57;23.77;;;1.70;99.90;;;;;;5010594;28;20204;-74
2022/12/07 00:31:53;;;;;;;45.30;22.47;;;1.70;99.90;;;;;;5009644;28;20292;-74
2022/12/07 00:34:21;;;;;;;45.00;23.17;;;1.70;99.90;;;;;;4994108;28;20188;-72
2022/12/07 00:36:49;;;;;;;49.07;22.23;;;1.80;99.90;;;;;;5010445;28;20688;-74
2022/12/07 00:39:17;;;;;;;53.50;24.50;;;1.80;99.90;;;;;;4993970;28;20299;-76
2022/12/07 00:41:43;;;;;;;49.37;24.13;;;1.70;99.90;;;;;;4994110;28;20263;-74
2022/12/07 00:44:11;;;;;;;51.93;22.47;;;1.80;99.90;;;;;;5010552;28;20204;-74
2022/12/07 00:46:38;;;;;;;46.23;22.47;;;1.80;99.90;;;;;;4993843;28;20310;-74
2022/12/07 00:49:05;;;;;;;50.93;23.93;;;1.90;99.90;;;;;;4995137;28;20239;-75
2022/12/07 00:51:32;;;;;;;46.60;23.50;;;1.90;99.90;;;;;;4994922;28;20564;-74
2022/12/07 00:53:59;;;;;;;50.20;24.27;;;1.90;99.90;;;;;;4977876;28;20217;-76
2022/12/07 00:56:28;;;;;;;45.33;22.77;;;1.90;99.90;;;;;;4994953;28;20201;-74
2022/12/07 00:59:01;;;;;;;49.77;23.97;;;2.00;99.90;;;;;;5010094;28;20305;-74
2022/12/07 01:01:30;;;;;;;49.23;23.93;;;2.00;99.90;;;;;;4993253;28;20339;-74
2022/12/07 01:03:58;;;;;;;48.30;24.23;;;2.00;99.90;;;;;;4993854;28;20208;-75
2022/12/07 01:06:25;;;;;;;51.43;24.83;;;2.00;99.90;;;;;;5009693;28;20216;-74
2022/12/07 01:08:53;;;;;;;53.23;26.43;;;2.10;99.90;;;;;;5010047;28;20208;-75
2022/12/07 01:11:22;;;;;;;50.80;24.17;;;2.00;99.90;;;;;;4994686;28;20192;-75
2022/12/07 01:13:54;;;;;;;46.83;23.33;;;2.10;99.90;;;;;;4994480;28;20752;-75
2022/12/07 01:16:23;;;;;;;46.53;22.93;;;2.10;99.90;;;;;;4993127;28;20219;-75
2022/12/07 01:18:53;;;;;;;51.87;23.80;;;2.10;99.90;;;;;;5009661;28;20195;-75
2022/12/07 01:21:23;;;;;;;49.33;24.30;;;2.10;99.90;;;;;;4994459;28;20211;-75
2022/12/07 01:23:51;;;;;;;49.50;23.67;;;2.10;99.90;;;;;;4993400;28;20207;-77
2022/12/07 01:26:21;;;;;;;45.70;22.27;;;2.20;99.90;;;;;;4992996;28;20201;-76
2022/12/07 01:28:49;;;;;;;51.60;23.70;;;2.20;99.90;;;;;;4993366;28;20215;-74
2022/12/07 01:31:19;;;;;;;49.63;23.23;;;2.30;99.90;;;;;;4992988;28;20193;-77
2022/12/07 01:33:48;;;;;;;45.67;21.00;;;2.40;99.90;;;;;;4993148;28;20259;-74
2022/12/07 01:36:22;;;;;;;45.10;21.33;;;2.40;99.90;;;;;;4994225;28;20197;-74
2022/12/07 01:38:52;;;;;;;45.33;20.47;;;2.40;99.90;;;;;;5009294;28;20209;-74
2022/12/07 01:41:20;;;;;;;41.27;19.53;;;2.40;99.90;;;;;;4992927;28;20216;-74
2022/12/07 01:44:12;;;;;;;38.53;18.73;;;2.40;99.90;;;;;;4993102;28;20557;-78
2022/12/07 01:46:40;;;;;;;40.83;19.33;;;2.40;99.90;;;;;;4992490;28;20224;-77
2022/12/07 01:49:14;;;;;;;39.93;18.47;;;2.40;99.90;;;;;;5009146;28;20298;-76
2022/12/07 01:51:43;;;;;;;35.20;16.97;;;2.40;99.90;;;;;;4993055;28;20199;-78
2022/12/07 01:54:12;;;;;;;34.90;17.27;;;2.50;99.90;;;;;;4992813;28;20296;-77
2022/12/07 01:56:42;;;;;;;33.70;17.97;;;2.50;99.90;;;;;;4992677;28;20201;-76
2022/12/07 01:59:09;;;;;;;35.67;17.27;;;2.40;99.90;;;;;;4992508;28;20197;-76
2022/12/07 02:01:36;;;;;;;35.97;15.90;;;2.40;99.90;;;;;;4992657;28;20243;-77
2022/12/07 02:04:04;;;;;;;31.27;15.03;;;2.50;99.90;;;;;;4992679;28;20255;-76
2022/12/07 02:06:31;;;;;;;32.50;15.97;;;2.60;99.90;;;;;;4993731;28;20287;-76
2022/12/07 02:08:58;;;;;;;28.27;15.80;;;2.60;99.90;;;;;;4992634;28;20292;-76
2022/12/07 02:11:25;;;;;;;24.57;13.63;;;2.50;99.90;;;;;;4992911;28;20193;-76
2022/12/07 02:13:52;;;;;;;27.03;15.13;;;2.50;99.90;;;;;;4992450;28;20217;-77
2022/12/07 02:16:39;;;;;;;25.63;14.33;;;2.50;99.90;;;;;;4992457;28;20204;-76
2022/12/07 02:19:24;;;;;;;24.10;13.07;;;2.50;99.90;;;;;;4993685;28;20195;-76
2022/12/07 02:22:20;;;;;;;26.10;13.13;;;2.50;99.90;;;;;;4993667;28;20196;-76
2022/12/07 02:24:56;;;;;;;24.90;13.17;;;2.50;99.90;;;;;;4984947;28;20649;-76
2022/12/07 02:27:44;;;;;;;25.83;12.57;;;2.50;99.90;;;;;;4992249;28;20647;-76
2022/12/07 02:30:13;;;;;;;23.07;12.60;;;2.50;99.90;;;;;;5008533;28;20272;-76
2022/12/07 02:32:52;;;;;;;25.07;11.70;;;2.50;99.90;;;;;;4992249;28;20207;-76
2022/12/07 02:35:43;;;;;;;21.83;11.50;;;2.50;99.90;;;;;;4993602;28;20513;-74
2022/12/07 02:38:37;;;;;;;21.80;11.37;;;2.50;99.90;;;;;;4994250;28;20204;-75
2022/12/07 02:41:12;;;;;;;24.90;11.50;;;2.30;99.90;;;;;;5012483;28;20660;-74
2022/12/07 02:43:46;;;;;;;22.10;11.97;;;2.30;99.90;;;;;;4996233;28;20665;-75
2022/12/07 02:46:24;;;;;;;20.80;10.77;;;2.30;99.90;;;;;;4995867;28;20613;-76
2022/12/07 02:48:53;;;;;;;22.37;11.80;;;2.30;99.90;;;;;;4996315;28;20241;-74
2022/12/07 02:51:20;;;;;;;24.50;13.20;;;2.20;99.90;;;;;;5012270;28;20203;-75
2022/12/07 02:53:48;;;;;;;21.70;12.17;;;2.20;99.90;;;;;;4995874;28;20578;-75
2022/12/07 02:56:35;;;;;;;23.53;12.07;;;2.20;99.90;;;;;;4995959;28;20215;-75
2022/12/07 02:59:26;;;;;;;22.47;11.13;;;2.30;99.90;;;;;;5012202;28;20203;-74
2022/12/07 03:02:18;;;;;;;22.40;11.20;;;2.20;99.90;;;;;;4995670;28;20323;-74
2022/12/07 03:04:51;;;;;;;22.47;11.40;;;2.10;99.90;;;;;;5012414;28;20234;-75
2022/12/07 03:07:45;;;;;;;20.60;11.17;;;2.10;99.90;;;;;;4995885;28;20221;-74
2022/12/07 03:10:22;;;;;;;19.70;10.77;;;2.20;99.90;;;;;;5011881;28;20193;-76
2022/12/07 03:13:17;;;;;;;20.07;10.67;;;2.20;99.90;;;;;;4995579;28;20225;-75
2022/12/07 03:16:25;;;;;;;17.90;10.40;;;2.30;99.90;;;;;;5011621;28;20205;-75
2022/12/07 03:18:59;;;;;;;18.90;9.77;;;2.20;99.90;;;;;;5011938;28;20209;-76
2022/12/07 03:21:36;;;;;;;15.77;9.00;;;2.30;99.90;;;;;;4996549;28;20666;-76
2022/12/07 03:24:15;;;;;;;18.20;8.13;;;2.20;99.90;;;;;;5011915;28;20291;-76
2022/12/07 03:26:49;;;;;;;12.90;7.10;;;2.10;99.90;;;;;;4996373;28;20528;-77
2022/12/07 03:29:43;;;;;;;12.97;7.57;;;2.10;99.90;;;;;;4996315;28;20217;-77
2022/12/07 03:32:31;;;;;;;12.93;7.17;;;2.10;99.90;;;;;;4978110;28;20208;-75
2022/12/07 03:35:09;;;;;;;13.30;7.37;;;2.00;99.90;;;;;;4994285;28;20570;-77
2022/12/07 03:38:11;;;;;;;12.37;7.27;;;1.90;99.90;;;;;;4994271;28;20240;-77
2022/12/07 03:40:45;;;;;;;11.90;7.13;;;2.00;99.90;;;;;;4977964;28;20299;-77
2022/12/07 03:43:12;;;;;;;11.47;6.90;;;2.00;99.90;;;;;;4994539;28;20200;-75
2022/12/07 03:45:42;;;;;;;12.17;7.03;;;2.00;99.90;;;;;;4993749;28;20216;-76
2022/12/07 03:48:31;;;;;;;9.77;6.60;;;1.90;99.90;;;;;;4993935;28;20224;-75
2022/12/07 03:51:22;;;;;;;9.97;6.30;;;2.00;99.90;;;;;;4994006;28;20872;-75
2022/12/07 03:54:02;;;;;;;10.87;6.17;;;1.90;99.90;;;;;;4977666;28;20211;-75
2022/12/07 03:56:29;;;;;;;10.00;6.37;;;1.90;99.90;;;;;;4993762;28;20223;-75
2022/12/07 03:58:57;;;;;;;9.97;6.27;;;1.90;99.90;;;;;;4992771;28;20649;-75
2022/12/07 04:01:24;;;;;;;10.10;6.80;;;2.00;99.90;;;;;;4993589;28;20323;-74
2022/12/07 04:03:51;;;;;;;12.93;6.90;;;1.90;99.90;;;;;;4993783;28;20214;-75
2022/12/07 04:06:19;;;;;;;10.57;5.97;;;1.90;99.90;;;;;;4993611;28;20341;-75
2022/12/07 04:08:45;;;;;;;10.20;6.20;;;1.90;99.90;;;;;;5001060;28;20232;-75
2022/12/07 04:11:12;;;;;;;11.53;6.57;;;1.90;99.90;;;;;;4997670;28;20220;-75
2022/12/07 04:16:24;;;;;;;10.73;6.50;;;1.80;99.90;;;;;;5014071;28;20191;-75
2022/12/07 04:18:51;;;;;;;9.33;5.90;;;1.70;99.90;;;;;;4997959;28;20290;-75
2022/12/07 04:21:18;;;;;;;10.70;6.73;;;1.70;99.90;;;;;;4997792;28;20196;-74
2022/12/07 04:23:45;;;;;;;10.30;6.53;;;1.70;99.90;;;;;;5015074;28;20215;-75
2022/12/07 04:26:12;;;;;;;10.93;6.37;;;1.70;99.90;;;;;;5013762;28;20204;-75
2022/12/07 04:28:39;;;;;;;11.13;6.70;;;1.70;99.90;;;;;;5013831;28;20603;-75
2022/12/07 04:31:06;;;;;;;10.20;6.60;;;1.70;99.90;;;;;;5013611;28;20227;-76
2022/12/07 04:33:33;;;;;;;11.17;6.90;;;1.60;99.90;;;;;;5013863;28;20609;-74
2022/12/07 04:36:00;;;;;;;12.90;7.40;;;1.60;99.90;;;;;;4997136;28;20222;-76
2022/12/07 04:38:27;;;;;;;14.70;7.20;;;1.60;99.90;;;;;;5013382;28;20200;-75
2022/12/07 04:40:53;;;;;;;11.10;6.97;;;1.60;99.90;;;;;;5014982;28;20262;-75
2022/12/07 04:43:20;;;;;;;11.67;7.10;;;1.60;99.90;;;;;;5013757;28;20642;-75
2022/12/07 04:45:48;;;;;;;11.67;7.03;;;1.60;99.90;;;;;;4996920;28;20207;-75
2022/12/07 04:48:15;;;;;;;13.70;7.40;;;1.60;99.90;;;;;;5013352;28;20581;-75
2022/12/07 04:50:42;;;;;;;12.97;7.20;;;1.50;99.90;;;;;;4997274;28;20195;-74
2022/12/07 04:53:12;;;;;;;12.07;6.90;;;1.60;99.90;;;;;;5013507;28;20243;-75
2022/12/07 04:55:39;;;;;;;12.33;6.80;;;1.50;99.90;;;;;;4997024;28;20195;-75
2022/12/07 04:58:05;;;;;;;12.33;7.20;;;1.50;99.90;;;;;;5014474;28;20275;-74
2022/12/07 05:00:32;;;;;;;13.77;8.20;;;1.50;99.90;;;;;;4996351;28;20220;-72
2022/12/07 05:03:00;;;;;;;13.20;8.00;;;1.50;99.90;;;;;;5012650;28;20232;-74
2022/12/07 05:05:27;;;;;;;13.70;7.80;;;1.50;99.90;;;;;;5014319;28;20199;-74
2022/12/07 05:07:53;;;;;;;14.63;7.63;;;1.40;99.90;;;;;;5014085;28;20218;-75
2022/12/07 05:10:20;;;;;;;16.00;8.07;;;1.40;99.90;;;;;;5013053;28;20199;-75
2022/12/07 05:12:48;;;;;;;15.13;8.57;;;1.40;99.90;;;;;;5013180;28;20672;-75
2022/12/07 05:15:15;;;;;;;14.57;8.77;;;1.30;99.90;;;;;;4996297;28;20661;-75
2022/12/07 05:17:42;;;;;;;17.63;9.83;;;1.30;99.90;;;;;;5012766;28;20192;-76
2022/12/07 05:20:09;;;;;;;16.03;9.87;;;1.40;99.90;;;;;;5012912;28;20192;-75
2022/12/07 05:22:36;;;;;;;18.07;9.90;;;1.30;99.90;;;;;;5013920;28;20188;-75
2022/12/07 05:25:03;;;;;;;16.37;9.87;;;1.30;99.90;;;;;;4996330;28;20200;-74
2022/12/07 05:27:30;;;;;;;16.93;9.73;;;1.30;99.90;;;;;;4996531;28;20681;-75
2022/12/07 05:29:58;;;;;;;19.50;10.10;;;1.30;99.90;;;;;;5013904;28;20200;-75
2022/12/07 05:32:25;;;;;;;18.70;9.47;;;1.20;99.90;;;;;;5012810;28;20184;-75
2022/12/07 05:34:54;;;;;;;17.20;9.83;;;1.10;99.90;;;;;;5012608;28;20203;-75
2022/12/07 05:37:21;;;;;;;18.63;10.27;;;1.10;99.90;;;;;;5012327;28;20238;-75
2022/12/07 05:39:48;;;;;;;18.13;9.97;;;1.00;99.90;;;;;;4998049;28;20208;-74
2022/12/07 05:42:15;;;;;;;19.50;10.30;;;1.10;99.90;;;;;;5012998;28;20629;-75
2022/12/07 05:44:46;;;;;;;19.20;10.47;;;1.10;99.90;;;;;;4995940;28;20200;-75
2022/12/07 05:47:14;;;;;;;17.90;9.50;;;1.10;99.90;;;;;;5015703;28;20656;-77
2022/12/07 05:49:41;;;;;;;16.63;9.47;;;1.10;99.90;;;;;;5015480;28;20249;-76
2022/12/07 05:52:08;;;;;;;21.03;9.90;;;1.10;99.90;;;;;;5033246;28;20194;-76
2022/12/07 05:54:35;;;;;;;18.57;9.53;;;1.10;99.90;;;;;;5015471;28;20195;-74
2022/12/07 05:57:01;;;;;;;17.97;10.23;;;1.10;99.90;;;;;;5015854;28;20242;-77
2022/12/07 05:59:28;;;;;;;17.70;9.67;;;1.10;99.90;;;;;;5015780;28;20198;-75
2022/12/07 06:01:58;;;;;;;20.03;10.43;;;1.00;99.90;;;;;;5032968;28;20273;-74
2022/12/07 06:04:28;;;;;;;18.43;9.97;;;1.00;99.90;;;;;;5033172;28;20213;-76
2022/12/07 06:06:55;;;;;;;20.83;10.30;;;1.00;99.90;;;;;;5015301;28;20587;-75
2022/12/07 06:09:24;;;;;;;19.07;10.03;;;1.10;99.90;;;;;;5015285;28;20214;-74
2022/12/07 06:14:37;;;;;;;22.53;10.97;;;1.00;99.90;;;;;;5015393;28;20191;-75
2022/12/07 06:17:04;;;;;;;19.87;10.30;;;1.00;99.90;;;;;;5015568;28;20586;-75
2022/12/07 06:19:31;;;;;;;19.53;10.77;;;1.00;99.90;;;;;;5015166;28;20199;-75
2022/12/07 06:21:58;;;;;;;20.57;10.87;;;1.00;99.90;;;;;;5033113;28;20548;-74
2022/12/07 06:24:25;;;;;;;20.70;10.13;;;0.90;99.90;;;;;;5015458;28;20188;-74
2022/12/07 06:26:52;;;;;;;19.73;10.33;;;0.90;99.90;;;;;;5015523;28;20565;-74
2022/12/07 06:29:19;;;;;;;19.40;10.00;;;0.90;99.90;;;;;;5015214;28;20234;-75
2022/12/07 06:31:46;;;;;;;19.87;10.57;;;0.90;99.90;;;;;;5032862;28;20188;-73
2022/12/07 06:34:18;;;;;;;19.50;9.90;;;0.90;99.90;;;;;;5014924;28;20208;-79
2022/12/07 06:36:50;;;;;;;20.33;9.37;;;0.90;99.90;;;;;;5015153;28;20199;-76
2022/12/07 06:39:19;;;;;;;21.77;10.83;;;0.90;99.90;;;;;;5015082;28;20199;-74
2022/12/07 06:41:46;;;;;;;20.47;10.70;;;0.90;99.90;;;;;;5032708;28;20198;-75
2022/12/07 06:44:12;;;;;;;20.60;10.57;;;0.90;99.90;;;;;;5015049;28;20218;-77
2022/12/07 06:46:39;;;;;;;21.17;10.43;;;0.90;99.90;;;;;;5032333;28;20196;-74
2022/12/07 06:49:06;;;;;;;21.57;10.33;;;0.80;99.90;;;;;;5031725;28;20264;-75
2022/12/07 06:51:36;;;;;;;20.63;10.23;;;0.80;99.90;;;;;;5014680;28;20253;-76
2022/12/07 06:54:03;;;;;;;17.17;9.50;;;0.80;99.90;;;;;;5014905;28;20199;-76
2022/12/07 06:56:30;;;;;;;22.10;10.37;;;0.80;99.90;;;;;;5015061;28;20187;-78
2022/12/07 06:58:57;;;;;;;21.10;11.13;;;0.80;99.90;;;;;;5032755;28;20191;-75
2022/12/07 07:01:24;;;;;;;24.07;10.73;;;0.70;99.90;;;;;;5027681;28;20229;-76
2022/12/07 07:03:52;;;;;;;24.20;11.63;;;0.80;99.90;;;;;;5011612;28;20257;-81
2022/12/07 07:06:18;;;;;;;22.20;10.63;;;0.80;99.90;;;;;;5011476;28;20286;-78
2022/12/07 07:08:45;;;;;;;20.10;9.53;;;0.80;99.90;;;;;;5012635;28;20226;-74
2022/12/07 07:11:12;;;;;;;21.47;10.67;;;0.80;99.90;;;;;;5011534;28;20667;-74
2022/12/07 07:13:40;;;;;;;19.67;10.77;;;0.80;99.90;;;;;;5011270;28;20704;-76
2022/12/07 07:16:07;;;;;;;21.00;10.83;;;0.70;99.90;;;;;;5011478;28;20250;-75
2022/12/07 07:18:34;;;;;;;21.27;10.87;;;0.80;99.90;;;;;;5011317;28;20196;-76
2022/12/07 07:21:01;;;;;;;19.30;10.43;;;0.80;99.90;;;;;;5011608;28;20222;-77
2022/12/07 07:23:28;;;;;;;22.67;11.70;;;0.80;99.90;;;;;;5012601;28;20529;-79
2022/12/07 07:25:55;;;;;;;21.33;10.27;;;0.80;99.90;;;;;;5013814;28;20212;-75
2022/12/07 07:28:22;;;;;;;21.67;10.70;;;0.80;99.90;;;;;;5015031;28;20216;-74
2022/12/07 07:30:49;;;;;;;20.37;10.27;;;0.80;99.90;;;;;;5014618;28;20196;-75
2022/12/07 07:33:16;;;;;;;19.70;9.97;;;0.80;99.90;;;;;;5016308;28;20557;-70
2022/12/07 07:35:43;;;;;;;22.10;10.43;;;0.80;99.90;;;;;;5014845;28;20315;-71
2022/12/07 07:38:09;;;;;;;22.33;10.83;;;0.80;99.90;;;;;;5017406;28;20673;-71
2022/12/07 07:40:36;;;;;;;21.17;10.97;;;0.90;99.90;;;;;;5034270;28;20212;-70
2022/12/07 07:43:03;;;;;;;22.93;11.23;;;0.90;99.90;;;;;;5034612;28;20199;-75
2022/12/07 07:45:30;;;;;;;21.90;11.13;;;0.90;99.90;;;;;;5050676;28;20205;-74
2022/12/07 07:47:57;;;;;;;20.30;10.63;;;0.90;99.90;;;;;;5034018;28;20267;-75
2022/12/07 07:50:24;;;;;;;22.07;10.30;;;1.00;99.90;;;;;;5034270;28;20198;-78
2022/12/07 07:52:51;;;;;;;20.83;10.23;;;0.90;99.90;;;;;;5034131;28;20216;-77
2022/12/07 07:55:18;;;;;;;20.50;10.20;;;0.90;99.90;;;;;;5034064;28;20196;-74
2022/12/07 07:57:44;;;;;;;19.77;10.07;;;1.00;99.90;;;;;;5035369;28;20213;-80
2022/12/07 08:00:20;;;;;;;20.30;9.57;;;1.00;99.90;;;;;;5033960;28;20258;-81
2022/12/07 08:02:47;;;;;;;19.73;10.13;;;1.00;99.90;;;;;;5035291;28;20217;-82
2022/12/07 08:05:14;;;;;;;18.87;9.63;;;1.00;99.90;;;;;;5033842;28;20195;-80
2022/12/07 08:07:41;;;;;;;17.40;9.10;;;1.00;99.90;;;;;;5034000;28;20195;-81
2022/12/07 08:10:11;;;;;;;19.73;10.10;;;1.10;99.90;;;;;;5035008;28;20219;-80
2022/12/07 08:13:10;;;;;;;18.13;9.30;;;1.10;99.90;;;;;;5034062;28;20233;-78
2022/12/07 08:15:30;;;;;;;20.57;10.20;;;1.10;99.90;;;;;;5002134;28;20196;-77
2022/12/07 08:17:58;;;;;;;18.80;9.70;;;1.20;99.90;;;;;;4995832;28;20195;-77
2022/12/07 08:20:25;;;;;;;17.77;9.33;;;1.10;99.90;;;;;;4994494;28;20323;-73
2022/12/07 08:22:52;;;;;;;21.27;10.17;;;1.20;99.90;;;;;;4994363;28;20623;-73
2022/12/07 08:25:19;;;;;;;19.70;9.57;;;1.30;99.90;;;;;;4994101;28;20196;-69
2022/12/07 08:27:46;;;;;;;19.43;10.10;;;1.20;99.90;;;;;;4995406;28;20185;-71
2022/12/07 08:30:13;;;;;;;21.80;11.20;;;1.30;99.90;;;;;;4994031;28;21131;-72
2022/12/07 08:32:40;;;;;;;21.27;10.43;;;1.30;99.90;;;;;;4994055;28;20207;-72
2022/12/07 08:35:08;;;;;;;23.37;11.63;;;1.30;99.90;;;;;;4993902;28;20215;-73
2022/12/07 08:37:35;;;;;;;23.83;10.90;;;1.20;99.90;;;;;;4994071;28;20181;-78
2022/12/07 08:40:04;;;;;;;21.30;11.10;;;1.30;99.90;;;;;;5010450;28;20197;-76
2022/12/07 08:42:39;;;;;;;24.33;11.60;;;1.30;99.90;;;;;;4993895;28;20570;-86
2022/12/07 08:45:08;;;;;;;26.97;12.20;;;1.40;99.90;;;;;;4993913;28;20195;-83
2022/12/07 08:47:40;;;;;;;26.13;11.73;;;1.40;99.90;;;;;;4995226;28;20205;-72
2022/12/07 08:50:09;;;;;;;26.40;11.90;;;1.40;99.90;;;;;;4993875;28;20212;-67
2022/12/07 08:52:37;;;;;;;24.53;11.60;;;1.40;99.90;;;;;;4994984;28;20189;-82
2022/12/07 08:55:05;;;;;;;29.17;12.90;;;1.50;99.90;;;;;;4993709;28;20623;-71
2022/12/07 08:57:34;;;;;;;26.17;12.37;;;1.60;99.90;;;;;;4995296;28;20190;-70
2022/12/07 09:00:01;;;;;;;28.47;13.27;;;1.60;99.90;;;;;;5010837;28;20208;-86
2022/12/07 09:02:29;;;;;;;28.10;12.67;;;1.60;99.90;;;;;;4997192;28;20203;-68
2022/12/07 09:04:56;;;;;;;28.17;12.67;;;1.70;99.90;;;;;;5014066;28;20198;-67
2022/12/07 09:07:24;;;;;;;30.43;13.17;;;1.70;99.90;;;;;;5016336;28;20587;-80
2022/12/07 09:09:51;;;;;;;28.50;12.37;;;1.70;99.90;;;;;;5016776;28;20744;-78
2022/12/07 09:12:18;;;;;;;28.37;12.77;;;1.80;99.90;;;;;;5016596;28;20216;-77
2022/12/07 09:14:45;;;;;;;29.87;13.37;;;1.80;99.90;;;;;;5032431;28;20290;-77
2022/12/07 09:17:12;;;;;;;29.03;12.67;;;1.90;99.90;;;;;;5024907;28;20210;-81
2022/12/07 09:19:41;;;;;;;28.20;12.90;;;1.90;99.90;;;;;;5027919;28;20506;-74
2022/12/07 09:22:08;;;;;;;26.47;12.20;;;1.90;99.90;;;;;;5033860;28;20182;-83
2022/12/07 09:24:35;;;;;;;28.70;13.20;;;2.00;99.90;;;;;;5018577;28;20520;-83
2022/12/07 09:27:02;;;;;;;27.03;12.37;;;1.90;99.90;;;;;;5023015;28;20195;-83
2022/12/07 09:29:29;;;;;;;28.77;12.43;;;2.00;99.90;;;;;;4998415;28;20223;-83
2022/12/07 09:31:56;;;;;;;24.53;11.67;;;2.10;99.90;;;;;;5013729;28;20188;-78
2022/12/07 09:34:27;;;;;;;29.43;12.90;;;2.10;99.90;;;;;;5012755;28;20250;-78
2022/12/07 09:36:58;;;;;;;29.20;12.50;;;2.20;99.90;;;;;;5012545;28;20196;-82
2022/12/07 09:39:24;;;;;;;30.83;13.27;;;2.30;99.90;;;;;;5013961;28;20203;-81
2022/12/07 09:41:51;;;;;;;26.90;12.50;;;2.20;99.90;;;;;;5012581;28;20214;-71
2022/12/07 09:44:23;;;;;;;27.13;12.53;;;2.30;99.90;;;;;;4995972;28;20909;-73
2022/12/07 09:47:11;;;;;;;30.53;12.20;;;2.30;99.90;;;;;;4995757;28;20202;-78
2022/12/07 09:49:51;;;;;;;28.70;12.57;;;2.40;99.90;;;;;;4997536;28;20299;-79
2022/12/07 09:52:26;;;;;;;25.27;11.23;;;2.40;99.90;;;;;;4996592;28;20196;-76
2022/12/07 09:54:53;;;;;;;25.03;11.20;;;2.40;99.90;;;;;;5013515;28;20214;-75
2022/12/07 09:57:29;;;;;;;28.07;11.93;;;2.40;99.90;;;;;;5012249;28;20288;-72
2022/12/07 10:00:09;;;;;;;28.13;12.13;;;2.50;99.90;;;;;;5013236;28;20295;-78
2022/12/07 10:02:44;;;;;;;25.33;11.57;;;2.50;99.90;;;;;;4996025;28;20196;-79
2022/12/07 10:05:20;;;;;;;26.77;11.47;;;2.50;99.90;;;;;;4995855;28;20195;-80
2022/12/07 10:07:50;;;;;;;25.67;11.40;;;2.50;99.90;;;;;;5013844;28;20519;-78
2022/12/07 10:10:30;;;;;;;21.70;10.13;;;2.60;99.90;;;;;;4995722;28;20719;-80
2022/12/07 10:13:09;;;;;;;22.07;10.37;;;2.50;99.90;;;;;;5013510;28;20235;-78
2022/12/07 10:15:55;;;;;;;23.30;10.77;;;2.40;99.90;;;;;;4996077;28;20215;-74
2022/12/07 10:18:33;;;;;;;23.67;11.03;;;2.50;99.90;;;;;;4995696;28;20196;-69
2022/12/07 10:21:12;;;;;;;23.77;10.80;;;2.50;99.90;;;;;;5013473;28;20184;-77
2022/12/07 10:24:01;;;;;;;23.03;10.40;;;2.50;99.90;;;;;;4995807;28;20191;-74
2022/12/07 10:26:30;;;;;;;24.67;10.73;;;2.60;99.90;;;;;;4995712;28;20192;-72
2022/12/07 10:29:20;;;;;;;23.53;10.23;;;2.60;99.90;;;;;;5013387;28;20606;-84
2022/12/07 10:31:57;;;;;;;21.37;10.03;;;2.50;99.90;;;;;;4995749;28;20602;-69
2022/12/07 10:34:31;;;;;;;24.60;10.60;;;2.50;99.90;;;;;;4996470;28;20719;-77
2022/12/07 10:37:16;;;;;;;20.80;9.97;;;2.50;99.90;;;;;;5025189;28;20581;-75
2022/12/07 10:39:55;;;;;;;24.50;10.37;;;2.60;99.90;;;;;;5017133;28;20191;-70
2022/12/07 10:42:24;;;;;;;21.33;10.23;;;2.60;99.90;;;;;;5007629;28;20211;-82
2022/12/07 10:45:15;;;;;;;21.03;10.30;;;2.60;99.90;;;;;;5007985;28;20645;-77
2022/12/07 10:47:58;;;;;;;21.43;9.83;;;2.60;99.90;;;;;;5014927;28;20192;-81
2022/12/07 10:50:55;;;;;;;21.03;10.27;;;2.60;99.90;;;;;;5014986;28;20230;-70
2022/12/07 10:53:49;;;;;;;22.13;9.77;;;2.70;99.90;;;;;;5015077;28;20196;-74
2022/12/07 10:56:37;;;;;;;19.57;9.50;;;2.60;99.90;;;;;;5032664;28;20219;-74
2022/12/07 10:59:15;;;;;;;20.57;9.77;;;2.60;99.90;;;;;;5015622;28;20199;-79
2022/12/07 11:01:54;;;;;;;19.17;9.50;;;2.60;99.90;;;;;;5036483;28;20230;-68
2022/12/07 11:04:35;;;;;;;19.63;9.87;;;2.70;99.90;;;;;;5018600;28;20191;-73
2022/12/07 11:07:21;;;;;;;20.60;10.33;;;2.60;99.90;;;;;;5018792;28;20201;-79
2022/12/07 11:10:08;;;;;;;19.80;10.13;;;2.70;99.90;;;;;;5018867;28;20218;-67
2022/12/07 11:13:23;;;;;;;19.73;9.70;;;2.70;99.90;;;;;;5018392;28;20293;-77
2022/12/07 11:16:38;;;;;;;19.40;9.53;;;2.70;99.90;;;;;;4939678;29;20210;-78
2022/12/07 11:19:22;;;;;;;19.97;9.67;;;2.70;99.90;;;;;;4939752;29;20197;-72
2022/12/07 11:22:29;;;;;;;18.30;10.07;;;2.70;99.90;;;;;;4939607;29;20298;-68
2022/12/07 11:25:20;;;;;;;20.07;10.03;;;2.70;99.90;;;;;;4861529;29;20535;-73
2022/12/07 11:28:12;;;;;;;17.30;9.10;;;2.70;99.90;;;;;;4846175;29;20238;-67
2022/12/07 11:30:50;;;;;;;17.73;9.13;;;2.70;99.90;;;;;;4861154;29;20233;-72
2022/12/07 11:33:37;;;;;;;17.50;9.80;;;2.70;99.90;;;;;;4845934;29;20205;-67
2022/12/07 11:36:28;;;;;;;19.10;9.93;;;2.60;99.90;;;;;;4861135;29;20618;-80
2022/12/07 11:39:00;;;;;;;18.30;9.60;;;2.70;99.90;;;;;;4861059;29;20213;-68
2022/12/07 11:41:35;;;;;;;19.53;9.83;;;2.70;99.90;;;;;;4861445;29;20304;-69
2022/12/07 11:44:35;;;;;;;18.60;9.87;;;2.70;99.90;;;;;;4844207;29;20200;-80
2022/12/07 11:47:09;;;;;;;18.87;10.20;;;2.70;99.90;;;;;;4819401;29;20263;-80
2022/12/07 11:49:58;;;;;;;18.63;9.83;;;2.70;99.90;;;;;;4824309;29;20222;-76
2022/12/07 11:52:32;;;;;;;17.60;10.07;;;2.70;99.90;;;;;;4860969;29;20199;-73
2022/12/07 11:55:01;;;;;;;19.43;10.07;;;2.70;99.90;;;;;;4879575;29;20213;-82
2022/12/07 11:57:39;;;;;;;20.77;10.23;;;2.80;99.90;;;;;;4879711;29;20236;-67
2022/12/07 12:00:14;;;;;;;16.83;9.30;;;2.70;99.90;;;;;;4890389;29;20333;-68
2022/12/07 12:02:53;;;;;;;19.47;10.70;;;2.70;99.90;;;;;;4917052;29;20230;-76
2022/12/07 12:05:25;;;;;;;20.87;9.80;;;2.70;99.90;;;;;;4916727;29;20219;-68
2022/12/07 12:07:56;;;;;;;17.30;9.73;;;2.70;99.90;;;;;;4901323;29;20567;-71
2022/12/07 12:10:57;;;;;;;19.43;10.33;;;2.70;99.90;;;;;;4900509;29;20236;-73
2022/12/07 12:13:47;;;;;;;20.10;10.20;;;2.80;99.90;;;;;;4917362;29;20220;-67
2022/12/07 12:17:18;;;;;;;17.80;10.13;;;2.80;99.90;;;;;;4916041;29;20224;-69
2022/12/07 12:20:02;;;;;;;23.77;10.90;;;2.70;99.90;;;;;;4914329;29;20212;-70
2022/12/07 12:22:34;;;;;;;19.27;10.57;;;2.50;99.90;;;;;;4901163;29;20200;-75
2022/12/07 12:25:06;;;;;;;22.37;11.73;;;2.50;99.90;;;;;;4997328;28;20196;-74
2022/12/07 12:27:36;;;;;;;19.77;10.70;;;2.40;99.90;;;;;;4997616;28;20200;-71
2022/12/07 12:30:32;;;;;;;21.13;11.27;;;2.40;99.90;;;;;;4998412;28;20629;-70
2022/12/07 12:33:28;;;;;;;24.00;11.13;;;2.40;99.90;;;;;;5014853;28;20561;-76
2022/12/07 12:36:35;;;;;;;21.00;10.60;;;2.40;99.90;;;;;;5013770;28;20692;-75
2022/12/07 12:39:13;;;;;;;18.50;9.97;;;2.40;99.90;;;;;;5011273;28;20192;-75
2022/12/07 12:44:15;;;;;;;18.97;10.50;;;2.40;99.90;;;;;;5017083;28;20191;-83
2022/12/07 12:46:51;;;;;;;20.07;10.53;;;2.40;99.90;;;;;;5033494;28;20201;-77
2022/12/07 12:49:20;;;;;;;18.20;10.20;;;2.40;99.90;;;;;;5033213;28;20202;-75
2022/12/07 12:51:59;;;;;;;17.33;9.77;;;2.30;99.90;;;;;;5033044;28;20213;-78
2022/12/07 12:54:31;;;;;;;19.47;9.67;;;2.40;99.90;;;;;;5016801;28;20557;-80
2022/12/07 12:57:22;;;;;;;18.83;9.70;;;2.30;99.90;;;;;;5034659;28;20210;-72
2022/12/07 12:59:52;;;;;;;17.73;8.93;;;2.30;99.90;;;;;;5016458;28;20203;-68
2022/12/07 13:02:32;;;;;;;16.37;8.87;;;2.30;99.90;;;;;;5032740;28;20259;-71
2022/12/07 13:05:09;;;;;;;17.43;9.63;;;2.30;99.90;;;;;;5033972;28;20209;-79
2022/12/07 13:07:49;;;;;;;19.37;9.57;;;2.30;99.90;;;;;;5016809;28;20214;-70
2022/12/07 13:10:32;;;;;;;17.43;9.13;;;2.40;99.90;;;;;;5016107;28;20210;-82
2022/12/07 13:13:12;;;;;;;15.87;8.77;;;2.40;99.90;;;;;;5034064;28;20247;-74
2022/12/07 13:15:54;;;;;;;17.43;9.67;;;2.40;99.90;;;;;;5016054;28;20202;-73
2022/12/07 13:18:30;;;;;;;17.03;9.00;;;2.40;99.90;;;;;;5015936;28;20682;-74
2022/12/07 13:21:09;;;;;;;16.67;9.13;;;2.40;99.90;;;;;;5016262;28;20282;-75